9C8 weather

Evart Municipal Airport
Evart, Michigan, United States

Public forecast

Using degrees Fahrenheit for public forecast. Weather courtesy of forecast.io.

METAR (pilot weather report)

Closest report is Roben Hood Airport, 14.3 nm (26.4 km) SW. Retrieved 2019/06/18 22:37 UTC (56 seconds ago):

KRQB 182237Z AUTO 00000KT 10SM CLR 25/14 A2987 RMK AO2 T02490136

TAF (pilot weather forecast)

Closest forecast is Manistee Co Blacker Airport, 47.5 nm (87.9 km) WNW. Retrieved 2019/06/18 18:57 UTC (4 hours ago):

TAF KMBL 181753Z 1818/1918 21005KT P6SM BKN150 FM190300 00000KT P6SM BKN050 FM190500 00000KT P6SM BKN080 FM190700 00000KT P6SM BKN050 FM190900 00000KT 4SM BR BKN015 FM191300 00000KT P6SM BKN009 FM191700 VRB03KT P6SM BKN024